createdAt,value
2023-01-17T00:01:17.239Z,1.88
2023-01-17T00:04:03.031Z,2.05
2023-01-17T00:06:48.446Z,2.10
2023-01-17T00:09:33.920Z,1.98
2023-01-17T00:12:02.098Z,2.22
2023-01-17T00:14:29.091Z,1.92
2023-01-17T00:16:56.015Z,2.30
2023-01-17T00:19:41.722Z,2.10
2023-01-17T00:22:46.425Z,2.25
2023-01-17T00:25:33.274Z,2.30
2023-01-17T00:28:00.150Z,2.05
2023-01-17T00:30:27.140Z,2.10
2023-01-17T00:32:53.959Z,2.15
2023-01-17T00:35:21.923Z,2.17
2023-01-17T00:37:48.735Z,2.28
2023-01-17T00:40:15.568Z,2.28
2023-01-17T00:42:42.392Z,2.50
2023-01-17T00:45:28.397Z,2.20
2023-01-17T00:48:13.740Z,2.38
2023-01-17T00:50:59.089Z,2.25
2023-01-17T00:53:44.687Z,2.00
2023-01-17T00:56:30.079Z,2.28
2023-01-17T00:59:15.580Z,2.13
2023-01-17T01:02:01.069Z,2.20
2023-01-17T01:04:46.864Z,2.28
2023-01-17T01:07:32.156Z,2.20
2023-01-17T01:13:03.134Z,2.72
2023-01-17T01:15:48.556Z,2.30
2023-01-17T01:18:34.135Z,2.40
2023-01-17T01:21:22.523Z,2.13
2023-01-17T01:24:07.881Z,2.13
2023-01-17T01:26:53.200Z,2.10
2023-01-17T01:29:38.681Z,2.00
2023-01-17T01:32:24.024Z,2.03
2023-01-17T01:34:50.950Z,2.40
2023-01-17T01:37:17.798Z,2.10
2023-01-17T01:39:44.676Z,2.03
2023-01-17T01:42:15.580Z,2.00
2023-01-17T01:44:49.821Z,1.90
2023-01-17T01:47:37.613Z,1.80
2023-01-17T01:50:06.222Z,1.65
2023-01-17T01:52:33.829Z,2.08
2023-01-17T01:55:06.202Z,1.90
2023-01-17T01:57:36.908Z,2.05
2023-01-17T02:00:30.801Z,1.83
2023-01-17T02:03:00.140Z,1.80
2023-01-17T02:05:27.404Z,2.13
2023-01-17T02:08:04.963Z,1.92
2023-01-17T02:10:33.404Z,1.80
2023-01-17T02:13:00.328Z,1.90
2023-01-17T02:15:32.979Z,1.80
2023-01-17T02:18:25.731Z,1.77
2023-01-17T02:20:58.704Z,1.80
2023-01-17T02:23:56.549Z,1.73
2023-01-17T02:26:26.134Z,1.90
2023-01-17T02:28:55.900Z,1.83
2023-01-17T02:31:32.724Z,1.73
2023-01-17T02:34:31.966Z,1.80
2023-01-17T02:37:04.607Z,1.80
2023-01-17T02:39:39.973Z,2.03
2023-01-17T02:42:09.782Z,1.80
2023-01-17T02:44:43.246Z,1.80
2023-01-17T02:47:23.597Z,1.50
2023-01-17T02:49:52.718Z,1.60
2023-01-17T02:52:31.358Z,1.60
2023-01-17T02:55:03.761Z,2.03
2023-01-17T02:57:47.885Z,1.95
2023-01-17T03:00:22.433Z,1.70
2023-01-17T03:02:49.372Z,1.63
2023-01-17T03:05:20.260Z,1.50
2023-01-17T03:07:48.395Z,1.52
2023-01-17T03:10:15.579Z,1.60
2023-01-17T03:12:42.443Z,1.40
2023-01-17T03:15:13.581Z,1.45
2023-01-17T03:17:50.777Z,1.38
2023-01-17T03:20:17.786Z,1.05
2023-01-17T03:22:44.645Z,1.10
2023-01-17T03:25:11.645Z,1.17
2023-01-17T03:27:38.502Z,1.05
2023-01-17T03:30:06.384Z,1.35
2023-01-17T03:32:33.283Z,1.30
2023-01-17T03:35:00.226Z,0.95
2023-01-17T03:37:27.064Z,1.13
2023-01-17T03:39:53.943Z,1.27
2023-01-17T03:42:20.847Z,1.10
2023-01-17T03:44:47.674Z,1.10
2023-01-17T03:47:14.603Z,1.00
2023-01-17T03:49:41.555Z,1.10
2023-01-17T03:52:08.404Z,1.30
2023-01-17T03:54:35.350Z,1.00
2023-01-17T03:57:02.181Z,1.10
2023-01-17T03:59:29.105Z,1.10
2023-01-17T04:01:55.997Z,1.10
2023-01-17T04:04:23.006Z,1.00
2023-01-17T04:06:49.824Z,1.30
2023-01-17T04:09:16.718Z,1.23
2023-01-17T04:11:43.671Z,1.00
2023-01-17T04:14:10.548Z,1.10
2023-01-17T04:16:37.497Z,1.10
2023-01-17T04:19:04.385Z,1.20
2023-01-17T04:21:31.256Z,1.25
2023-01-17T04:23:58.214Z,1.10
2023-01-17T04:26:25.060Z,1.23
2023-01-17T04:28:51.916Z,1.25
2023-01-17T04:31:18.871Z,1.30
2023-01-17T04:33:45.715Z,1.23
2023-01-17T04:36:12.599Z,1.50
2023-01-17T04:38:39.463Z,1.30
2023-01-17T04:41:06.282Z,1.20
2023-01-17T04:43:33.130Z,1.45
2023-01-17T04:46:00.029Z,1.30
2023-01-17T04:48:27.302Z,1.40
2023-01-17T04:51:01.349Z,1.20
2023-01-17T04:53:28.396Z,1.40
2023-01-17T04:55:55.390Z,1.40
2023-01-17T04:58:23.353Z,1.55
2023-01-17T05:00:51.844Z,1.50
2023-01-17T05:03:19.764Z,1.67
2023-01-17T05:05:47.071Z,2.17
2023-01-17T05:08:14.392Z,2.10
2023-01-17T05:10:41.358Z,2.00
2023-01-17T05:13:09.338Z,2.05
2023-01-17T05:15:36.493Z,1.77
2023-01-17T05:18:08.497Z,1.90
2023-01-17T05:20:35.649Z,1.90
2023-01-17T05:23:03.043Z,1.60
2023-01-17T05:25:31.032Z,1.80
2023-01-17T05:28:00.105Z,1.70
2023-01-17T05:30:28.407Z,2.05
2023-01-17T05:32:56.294Z,1.63
2023-01-17T05:35:25.564Z,1.88
2023-01-17T05:37:52.771Z,1.65
2023-01-17T05:40:21.305Z,1.73
2023-01-17T05:42:49.248Z,1.90
2023-01-17T05:45:17.158Z,1.88
2023-01-17T05:47:48.500Z,2.03
2023-01-17T05:50:23.647Z,1.80
2023-01-17T05:52:55.237Z,1.92
2023-01-17T05:55:22.571Z,1.60
2023-01-17T05:57:50.388Z,1.90
2023-01-17T06:00:17.880Z,1.70
2023-01-17T06:02:45.484Z,1.70
2023-01-17T06:05:12.670Z,1.80
2023-01-17T06:07:39.786Z,1.60
2023-01-17T06:10:07.364Z,1.70
2023-01-17T06:12:34.384Z,1.85
2023-01-17T06:15:01.355Z,1.80
2023-01-17T06:17:28.298Z,1.50
2023-01-17T06:19:55.195Z,1.50
2023-01-17T06:22:22.181Z,5.22
2023-01-17T06:24:49.054Z,4.68
2023-01-17T06:27:16.096Z,2.40
2023-01-17T06:29:43.130Z,2.70
2023-01-17T06:32:10.252Z,3.15
2023-01-17T06:34:38.142Z,2.47
2023-01-17T06:37:05.138Z,2.25
2023-01-17T06:39:32.117Z,2.10
2023-01-17T06:42:00.858Z,2.10
2023-01-17T06:44:27.882Z,1.90
2023-01-17T06:46:54.969Z,2.00
2023-01-17T06:49:22.068Z,1.83
2023-01-17T06:51:49.039Z,2.00
2023-01-17T06:54:15.919Z,2.00
2023-01-17T06:56:42.895Z,1.70
2023-01-17T06:59:10.023Z,1.80
2023-01-17T07:01:37.137Z,2.00
2023-01-17T07:04:04.747Z,1.77
2023-01-17T07:06:31.807Z,1.50
2023-01-17T07:08:59.264Z,1.80
2023-01-17T07:11:27.421Z,1.90
2023-01-17T07:13:54.566Z,1.85
2023-01-17T07:16:21.625Z,2.20
2023-01-17T07:18:48.648Z,2.20
2023-01-17T07:21:15.655Z,2.22
2023-01-17T07:23:42.584Z,2.15
2023-01-17T07:26:09.606Z,2.10
2023-01-17T07:28:36.808Z,1.98
2023-01-17T07:31:08.074Z,2.30
2023-01-17T07:33:35.126Z,2.00
2023-01-17T07:36:09.461Z,2.20
2023-01-17T07:38:36.571Z,2.10
2023-01-17T07:41:03.726Z,2.20
2023-01-17T07:43:30.802Z,1.92
2023-01-17T07:46:01.303Z,1.98
2023-01-17T07:48:29.238Z,2.10
2023-01-17T07:50:57.005Z,2.15
2023-01-17T07:53:28.400Z,2.05
2023-01-17T07:55:55.740Z,1.92
2023-01-17T07:58:22.981Z,2.05
2023-01-17T08:00:50.108Z,2.55
2023-01-17T08:03:17.694Z,2.65
2023-01-17T08:05:53.110Z,1.95
2023-01-17T08:08:20.084Z,2.53
2023-01-17T08:10:47.349Z,2.50
2023-01-17T08:13:14.351Z,3.33
2023-01-17T08:15:41.286Z,2.90
2023-01-17T08:18:08.173Z,2.80
2023-01-17T08:20:35.161Z,2.85
2023-01-17T08:23:02.115Z,3.17
2023-01-17T08:25:29.124Z,2.72
2023-01-17T08:27:57.023Z,3.10
2023-01-17T08:30:24.218Z,2.83
2023-01-17T08:32:51.204Z,4.20
2023-01-17T08:35:20.175Z,3.20
2023-01-17T08:37:48.025Z,2.88
2023-01-17T08:40:20.560Z,2.97
2023-01-17T08:42:55.104Z,2.80
2023-01-17T08:47:48.809Z,2.75
2023-01-17T08:50:20.665Z,2.83
2023-01-17T08:52:50.776Z,2.60
2023-01-17T08:55:17.853Z,2.72
2023-01-17T08:57:44.886Z,2.47
2023-01-17T09:00:12.192Z,2.40
2023-01-17T09:02:39.123Z,2.55
2023-01-17T09:05:06.730Z,2.38
2023-01-17T09:07:33.766Z,2.17
2023-01-17T09:10:00.656Z,2.13
2023-01-17T09:12:27.599Z,2.55
2023-01-17T09:14:54.525Z,2.60
2023-01-17T09:17:21.497Z,2.42
2023-01-17T09:19:48.902Z,3.00
2023-01-17T09:22:15.826Z,3.45
2023-01-17T09:24:42.689Z,2.88
2023-01-17T09:27:09.656Z,2.92
2023-01-17T09:29:36.614Z,2.88
2023-01-17T09:32:03.762Z,2.78
2023-01-17T09:34:30.745Z,2.50
2023-01-17T09:36:57.636Z,2.40
2023-01-17T09:39:24.815Z,2.40
2023-01-17T09:42:16.738Z,2.33
2023-01-17T09:44:47.904Z,2.30
2023-01-17T09:47:24.052Z,2.30
2023-01-17T09:49:51.080Z,2.30
2023-01-17T09:52:21.099Z,2.13
2023-01-17T09:54:48.619Z,2.20
2023-01-17T09:57:29.611Z,2.15
2023-01-17T10:00:09.622Z,2.05
2023-01-17T10:02:45.753Z,2.00
2023-01-17T10:05:37.792Z,2.03
2023-01-17T10:08:07.498Z,2.17
2023-01-17T10:10:54.110Z,1.90
2023-01-17T10:13:27.944Z,2.05
2023-01-17T10:16:07.134Z,2.10
2023-01-17T10:18:40.134Z,2.35
2023-01-17T10:21:33.488Z,2.30
2023-01-17T10:24:03.852Z,2.20
2023-01-17T10:26:30.814Z,2.20
2023-01-17T10:29:02.883Z,2.10
2023-01-17T10:31:34.971Z,1.92
2023-01-17T10:34:11.928Z,2.20
2023-01-17T10:36:41.358Z,2.25
2023-01-17T10:39:24.987Z,2.08
2023-01-17T10:42:00.278Z,1.80
2023-01-17T10:44:39.459Z,2.08
2023-01-17T10:47:12.328Z,2.08
2023-01-17T10:49:45.315Z,2.00
2023-01-17T10:52:24.259Z,2.20
2023-01-17T10:55:17.099Z,2.10
2023-01-17T10:57:45.125Z,2.13
2023-01-17T11:00:33.791Z,2.30
2023-01-17T11:03:01.229Z,2.20
2023-01-17T11:05:30.330Z,2.00
2023-01-17T11:08:04.055Z,1.88
2023-01-17T11:10:39.968Z,2.30
2023-01-17T11:13:27.476Z,2.15
2023-01-17T11:16:06.204Z,2.10
2023-01-17T11:18:38.182Z,2.20
2023-01-17T11:21:24.228Z,2.20
2023-01-17T11:23:53.811Z,2.17
2023-01-17T11:26:33.061Z,2.60
2023-01-17T11:29:36.994Z,2.10
2023-01-17T11:32:22.146Z,2.20
2023-01-17T11:35:07.465Z,2.33
2023-01-17T11:37:35.257Z,2.58
2023-01-17T11:40:09.272Z,2.38
2023-01-17T11:42:37.493Z,2.80
2023-01-17T11:45:37.115Z,2.60
2023-01-17T11:48:12.815Z,2.50
2023-01-17T11:51:02.402Z,2.13
2023-01-17T11:53:33.783Z,2.60
2023-01-17T11:56:33.075Z,3.05
2023-01-17T11:59:40.136Z,3.17
2023-01-17T12:02:40.985Z,2.80
2023-01-17T12:05:38.645Z,3.17
2023-01-17T12:08:14.404Z,3.13
2023-01-17T12:10:52.262Z,2.67
2023-01-17T12:14:00.775Z,2.92
2023-01-17T12:17:01.864Z,2.70
2023-01-17T12:19:48.975Z,3.50
2023-01-17T12:22:18.781Z,2.90
2023-01-17T12:25:15.032Z,2.60
2023-01-17T12:27:47.923Z,2.58
2023-01-17T12:30:24.047Z,3.13
2023-01-17T12:33:13.308Z,2.60
2023-01-17T12:35:44.017Z,2.40
2023-01-17T12:38:27.491Z,2.60
2023-01-17T12:41:32.883Z,2.15
2023-01-17T12:44:00.310Z,2.50
2023-01-17T12:46:34.305Z,2.53
2023-01-17T12:49:28.874Z,2.05
2023-01-17T12:52:20.221Z,2.30
2023-01-17T12:54:50.432Z,2.50
2023-01-17T12:57:40.027Z,2.50
2023-01-17T13:00:10.655Z,2.47
2023-01-17T13:03:03.286Z,2.70
2023-01-17T13:05:38.330Z,3.22
2023-01-17T13:08:05.292Z,2.60
2023-01-17T13:10:55.772Z,2.40
2023-01-17T13:13:25.661Z,2.40
2023-01-17T13:15:55.450Z,2.47
2023-01-17T13:18:26.153Z,2.30
2023-01-17T13:20:56.757Z,2.10
2023-01-17T13:23:30.877Z,2.03
2023-01-17T13:25:58.649Z,1.90
2023-01-17T13:28:37.864Z,1.98
2023-01-17T13:31:25.912Z,2.20
2023-01-17T13:34:01.087Z,2.20
2023-01-17T13:36:38.093Z,2.17
2023-01-17T13:39:17.770Z,2.63
2023-01-17T13:41:51.443Z,2.00
2023-01-17T13:44:21.585Z,2.10
2023-01-17T13:47:06.655Z,2.28
2023-01-17T13:49:50.791Z,2.47
2023-01-17T13:52:20.758Z,2.40
2023-01-17T13:54:51.017Z,2.22
2023-01-17T13:57:32.783Z,2.28
2023-01-17T14:00:15.968Z,2.00
2023-01-17T14:02:43.401Z,2.08
2023-01-17T14:05:17.544Z,1.92
2023-01-17T14:07:57.645Z,2.00
2023-01-17T14:10:27.223Z,1.80
2023-01-17T14:12:54.568Z,1.90
2023-01-17T14:15:23.798Z,2.08
2023-01-17T14:17:57.343Z,2.00
2023-01-17T14:20:27.504Z,2.10
2023-01-17T14:22:58.021Z,2.10
2023-01-17T14:25:28.767Z,2.08
2023-01-17T14:27:58.891Z,2.20
2023-01-17T14:30:32.405Z,2.03
2023-01-17T14:33:00.919Z,2.00
2023-01-17T14:35:32.984Z,2.35
2023-01-17T14:38:03.199Z,2.00
2023-01-17T14:40:32.481Z,1.98
2023-01-17T14:43:13.212Z,2.08
2023-01-17T14:45:40.276Z,2.10
2023-01-17T14:48:20.210Z,1.80
2023-01-17T14:50:48.408Z,2.17
2023-01-17T14:53:26.055Z,1.95
2023-01-17T14:55:59.848Z,2.20
2023-01-17T14:58:34.297Z,2.00
2023-01-17T15:01:21.528Z,1.88
2023-01-17T15:03:55.159Z,1.70
2023-01-17T15:06:24.830Z,1.90
2023-01-17T15:08:54.719Z,1.90
2023-01-17T15:11:26.727Z,1.90
2023-01-17T15:13:57.431Z,2.05
2023-01-17T15:16:30.910Z,1.80
2023-01-17T15:18:57.987Z,2.17
2023-01-17T15:21:29.241Z,2.38
2023-01-17T15:24:01.490Z,1.90
2023-01-17T15:26:30.130Z,2.00
2023-01-17T15:29:05.314Z,2.00
2023-01-17T15:31:49.304Z,2.00
2023-01-17T15:34:27.321Z,2.10
2023-01-17T15:36:57.360Z,2.22
2023-01-17T15:39:30.441Z,2.08
2023-01-17T15:42:07.989Z,1.92
2023-01-17T15:44:48.493Z,1.95
2023-01-17T15:47:35.556Z,2.30
2023-01-17T15:50:17.907Z,2.17
2023-01-17T15:52:49.317Z,1.92
2023-01-17T15:55:23.680Z,1.88
2023-01-17T15:57:50.637Z,2.13
2023-01-17T16:00:20.979Z,2.35
2023-01-17T16:02:55.530Z,1.98
2023-01-17T16:05:31.092Z,2.10
2023-01-17T16:08:04.662Z,2.30
2023-01-17T16:10:32.870Z,2.13
2023-01-17T16:12:59.908Z,2.08
2023-01-17T16:15:27.182Z,1.98
2023-01-17T16:18:17.617Z,2.03
2023-01-17T16:20:52.233Z,1.98
2023-01-17T16:25:46.251Z,2.10
2023-01-17T16:28:13.211Z,2.00
2023-01-17T16:30:40.219Z,2.30
2023-01-17T16:33:10.019Z,2.30
2023-01-17T16:35:36.960Z,2.10
2023-01-17T16:38:05.745Z,2.20
2023-01-17T16:40:33.918Z,2.30
2023-01-17T16:43:01.041Z,2.40
2023-01-17T16:45:27.904Z,2.40
2023-01-17T16:47:54.827Z,2.30
2023-01-17T16:50:23.639Z,2.40
2023-01-17T16:52:53.989Z,2.40
2023-01-17T16:55:22.138Z,2.20
2023-01-17T16:57:49.852Z,2.10
2023-01-17T17:00:17.351Z,1.85
2023-01-17T17:02:44.375Z,2.42
2023-01-17T17:05:11.436Z,2.47
2023-01-17T17:07:44.124Z,2.40
2023-01-17T17:10:14.827Z,2.47
2023-01-17T17:12:41.848Z,2.53
2023-01-17T17:15:09.725Z,2.55
2023-01-17T17:17:37.625Z,2.25
2023-01-17T17:20:05.673Z,2.60
2023-01-17T17:22:33.004Z,2.40
2023-01-17T17:25:00.015Z,2.67
2023-01-17T17:27:27.824Z,2.72
2023-01-17T17:29:54.764Z,2.60
2023-01-17T17:32:21.746Z,2.75
2023-01-17T17:34:50.778Z,2.80
2023-01-17T17:37:17.782Z,3.00
2023-01-17T17:39:45.348Z,2.60
2023-01-17T17:42:12.542Z,2.80
2023-01-17T17:44:39.358Z,2.80
2023-01-17T17:47:06.248Z,3.10
2023-01-17T17:49:33.120Z,2.90
2023-01-17T17:52:04.540Z,3.30
2023-01-17T17:54:31.508Z,3.20
2023-01-17T17:56:58.339Z,3.30
2023-01-17T17:59:25.283Z,3.47
2023-01-17T18:01:52.384Z,3.30
2023-01-17T18:04:19.542Z,4.05
2023-01-17T18:06:46.549Z,3.90
2023-01-17T18:09:13.476Z,3.90
2023-01-17T18:11:41.508Z,4.15
2023-01-17T18:14:09.640Z,3.90
2023-01-17T18:16:41.732Z,3.92
2023-01-17T18:19:14.836Z,4.32
2023-01-17T18:21:41.773Z,4.15
2023-01-17T18:24:13.316Z,4.32
2023-01-17T18:26:41.597Z,4.90
2023-01-17T18:29:09.686Z,4.50
2023-01-17T18:31:36.680Z,5.00
2023-01-17T18:34:05.425Z,4.68
2023-01-17T18:36:34.378Z,4.80
2023-01-17T18:39:02.379Z,5.40
2023-01-17T18:41:30.128Z,5.20
2023-01-17T18:43:57.273Z,5.28
2023-01-17T18:46:26.003Z,4.70
2023-01-17T18:48:55.040Z,5.32
2023-01-17T18:51:21.950Z,5.32
2023-01-17T18:53:48.856Z,5.47
2023-01-17T18:56:18.138Z,5.18
2023-01-17T18:58:46.115Z,5.10
2023-01-17T19:01:14.017Z,5.55
2023-01-17T19:03:41.783Z,5.60
2023-01-17T19:06:11.005Z,5.30
2023-01-17T19:08:38.114Z,5.60
2023-01-17T19:11:05.184Z,6.28
2023-01-17T19:13:32.792Z,5.95
2023-01-17T19:16:01.068Z,5.20
2023-01-17T19:18:28.113Z,5.68
2023-01-17T19:20:55.132Z,5.60
2023-01-17T19:23:23.221Z,5.53
2023-01-17T19:25:54.826Z,5.50
2023-01-17T19:28:22.009Z,5.35
2023-01-17T19:30:49.572Z,5.60
2023-01-17T19:33:16.406Z,5.47
2023-01-17T19:35:43.362Z,5.57
2023-01-17T19:38:10.211Z,5.47
2023-01-17T19:40:37.075Z,5.43
2023-01-17T19:43:04.603Z,5.80
2023-01-17T19:45:31.549Z,5.53
2023-01-17T19:47:58.536Z,5.50
2023-01-17T19:50:25.442Z,5.25
2023-01-17T19:52:53.223Z,5.50
2023-01-17T19:55:25.598Z,5.20
2023-01-17T19:57:52.568Z,5.60
2023-01-17T20:00:22.099Z,5.35
2023-01-17T20:02:49.816Z,5.50
2023-01-17T20:05:17.295Z,5.05
2023-01-17T20:07:44.109Z,4.95
2023-01-17T20:10:11.253Z,5.10
2023-01-17T20:12:38.159Z,4.80
2023-01-17T20:15:06.248Z,5.43
2023-01-17T20:17:34.597Z,5.00
2023-01-17T20:20:01.603Z,4.72
2023-01-17T20:22:28.462Z,4.75
2023-01-17T20:24:55.369Z,5.18
2023-01-17T20:27:26.590Z,4.85
2023-01-17T20:29:53.480Z,5.18
2023-01-17T20:32:20.305Z,5.22
2023-01-17T20:34:48.124Z,5.13
2023-01-17T20:37:15.032Z,5.65
2023-01-17T20:39:41.876Z,4.90
2023-01-17T20:42:08.747Z,5.05
2023-01-17T20:44:37.339Z,5.25
2023-01-17T20:47:04.213Z,5.03
2023-01-17T20:49:32.720Z,5.15
2023-01-17T20:52:02.272Z,5.13
2023-01-17T20:54:30.449Z,5.32
2023-01-17T20:56:57.322Z,5.32
2023-01-17T20:59:24.212Z,5.25
2023-01-17T21:01:51.777Z,5.28
2023-01-17T21:04:25.615Z,5.28
2023-01-17T21:06:53.381Z,5.27
2023-01-17T21:09:21.383Z,5.30
2023-01-17T21:11:48.356Z,5.40
2023-01-17T21:14:15.239Z,5.65
2023-01-17T21:16:42.178Z,5.15
2023-01-17T21:19:12.092Z,5.60
2023-01-17T21:21:39.124Z,5.30
2023-01-17T21:24:06.193Z,5.20
2023-01-17T21:26:33.339Z,5.90
2023-01-17T21:29:01.562Z,5.90
2023-01-17T21:31:29.841Z,5.32
2023-01-17T21:33:58.225Z,5.13
2023-01-17T21:36:26.813Z,5.25
2023-01-17T21:38:56.861Z,5.47
2023-01-17T21:41:26.563Z,5.70
2023-01-17T21:43:54.196Z,5.80
2023-01-17T21:46:21.180Z,5.60
2023-01-17T21:48:48.079Z,5.53
2023-01-17T21:51:15.093Z,5.60
2023-01-17T21:53:41.930Z,5.95
2023-01-17T21:56:30.473Z,6.10
2023-01-17T21:58:57.556Z,6.00
2023-01-17T22:01:28.880Z,6.05
2023-01-17T22:04:03.001Z,5.75
2023-01-17T22:06:31.542Z,5.53
2023-01-17T22:08:58.479Z,5.50
2023-01-17T22:11:26.333Z,5.78
2023-01-17T22:13:53.309Z,5.47
2023-01-17T22:16:23.015Z,5.70
2023-01-17T22:18:50.055Z,5.93
2023-01-17T22:21:19.641Z,5.90
2023-01-17T22:23:51.717Z,5.95
2023-01-17T22:26:18.875Z,5.93
2023-01-17T22:28:45.943Z,5.93
2023-01-17T22:31:19.128Z,5.72
2023-01-17T22:33:46.450Z,6.05
2023-01-17T22:36:13.867Z,5.72
2023-01-17T22:38:41.602Z,5.95
2023-01-17T22:41:10.237Z,5.82
2023-01-17T22:43:38.457Z,5.80
2023-01-17T22:46:06.363Z,6.00
2023-01-17T22:48:34.048Z,6.10
2023-01-17T22:51:02.373Z,6.00
2023-01-17T22:53:30.296Z,6.10
2023-01-17T22:56:07.276Z,6.07
2023-01-17T22:58:34.329Z,5.80
2023-01-17T23:01:11.201Z,6.15
2023-01-17T23:03:38.342Z,5.28
2023-01-17T23:06:15.054Z,5.32
2023-01-17T23:08:43.513Z,6.03
2023-01-17T23:11:43.438Z,5.72
2023-01-17T23:14:18.330Z,5.60
2023-01-17T23:17:13.483Z,5.60
2023-01-17T23:19:43.285Z,5.47
2023-01-17T23:22:19.077Z,5.88
2023-01-17T23:24:48.562Z,5.57
2023-01-17T23:27:39.852Z,5.50
2023-01-17T23:30:20.692Z,4.90
2023-01-17T23:33:01.106Z,5.28
2023-01-17T23:35:29.726Z,5.80
2023-01-17T23:38:15.133Z,5.07
2023-01-17T23:40:42.198Z,5.25
2023-01-17T23:43:25.402Z,5.25
2023-01-17T23:45:53.209Z,4.93
2023-01-17T23:48:20.822Z,4.72
2023-01-17T23:50:48.036Z,5.43
2023-01-17T23:53:22.198Z,4.97
2023-01-17T23:55:53.635Z,4.85
2023-01-17T23:58:22.073Z,4.85
